Time;durP1;ratioP1;P1;durP2;ratioP2;P2;SDS_P1;SDS_P2;PMS_P1;PMS_P2;Temp;Humidity;BMP_temperature;BMP_pressure;BME280_temperature;BME280_humidity;BME280_pressure;Samples;Min_cycle;Max_cycle;Signal;HPM_P1;HPM_P2
2022/11/09 00:01:22;;;;;;;10.57;2.80;;;13.30;99.90;;;;;;5008516;28;20107;-40
2022/11/09 00:03:48;;;;;;;9.52;2.53;;;13.40;99.90;;;;;;4994059;28;20053;-39
2022/11/09 00:06:15;;;;;;;7.60;2.17;;;13.30;99.90;;;;;;5012012;28;20085;-39
2022/11/09 00:08:42;;;;;;;6.40;2.40;;;13.30;99.90;;;;;;5006527;28;20074;-40
2022/11/09 00:11:10;;;;;;;11.43;2.80;;;13.20;99.90;;;;;;5010243;28;20125;-40
2022/11/09 00:13:38;;;;;;;8.57;2.50;;;13.20;99.90;;;;;;5010454;28;20077;-40
2022/11/09 00:16:05;;;;;;;11.00;2.58;;;13.20;99.90;;;;;;4994606;28;20213;-39
2022/11/09 00:18:32;;;;;;;7.30;2.50;;;13.20;99.90;;;;;;4990485;28;20100;-39
2022/11/09 00:20:59;;;;;;;6.40;2.50;;;13.20;99.90;;;;;;5012541;28;20046;-41
2022/11/09 00:23:26;;;;;;;9.52;3.53;;;13.20;99.90;;;;;;4993013;28;20096;-40
2022/11/09 00:25:53;;;;;;;12.77;3.22;;;13.20;99.90;;;;;;5011171;28;20405;-39
2022/11/09 00:28:21;;;;;;;10.02;2.42;;;13.20;99.90;;;;;;4976231;28;20062;-39
2022/11/09 00:30:47;;;;;;;8.65;2.55;;;13.10;99.90;;;;;;4983183;28;20093;-39
2022/11/09 00:33:14;;;;;;;8.68;2.33;;;13.10;99.90;;;;;;4991699;28;20081;-40
2022/11/09 00:35:41;;;;;;;10.27;2.78;;;13.10;99.90;;;;;;4992862;28;20442;-40
2022/11/09 00:38:08;;;;;;;9.35;2.70;;;13.10;99.90;;;;;;4990877;28;20105;-40
2022/11/09 00:40:35;;;;;;;9.90;2.92;;;13.00;99.90;;;;;;4990819;28;20058;-40
2022/11/09 00:43:01;;;;;;;7.82;2.63;;;13.00;99.90;;;;;;4991369;28;20141;-39
2022/11/09 00:45:30;;;;;;;14.98;2.65;;;13.00;99.90;;;;;;4981855;28;20054;-41
2022/11/09 00:47:56;;;;;;;9.40;2.40;;;13.00;99.90;;;;;;4990329;28;20112;-41
2022/11/09 00:50:23;;;;;;;15.25;2.88;;;13.00;99.90;;;;;;4991007;28;20502;-40
2022/11/09 00:52:50;;;;;;;12.55;2.70;;;13.10;99.90;;;;;;4992171;28;20463;-39
2022/11/09 00:55:19;;;;;;;8.93;2.50;;;13.10;99.90;;;;;;4991457;28;20097;-39
2022/11/09 00:57:48;;;;;;;11.60;2.65;;;13.10;99.90;;;;;;4991292;28;20129;-40
2022/11/09 01:00:17;;;;;;;6.82;2.40;;;13.10;99.90;;;;;;4987247;28;20139;-41
2022/11/09 01:02:45;;;;;;;13.73;2.85;;;13.10;99.90;;;;;;4982581;28;20104;-41
2022/11/09 01:05:12;;;;;;;8.15;2.70;;;13.20;99.90;;;;;;4990735;28;20054;-39
2022/11/09 01:07:38;;;;;;;11.48;2.97;;;13.20;99.90;;;;;;4992509;28;20100;-39
2022/11/09 01:10:06;;;;;;;9.25;2.40;;;13.10;99.90;;;;;;4991849;28;20145;-39
2022/11/09 01:12:33;;;;;;;10.82;2.60;;;13.10;99.90;;;;;;4994949;28;20038;-41
2022/11/09 01:15:00;;;;;;;10.05;2.55;;;13.10;99.90;;;;;;4994200;28;20090;-40
2022/11/09 01:17:27;;;;;;;7.35;2.58;;;13.10;99.90;;;;;;4994990;28;20050;-42
2022/11/09 01:19:55;;;;;;;10.50;2.40;;;13.10;99.90;;;;;;4994738;28;20506;-40
2022/11/09 01:22:22;;;;;;;8.27;2.53;;;13.10;99.90;;;;;;4991800;28;20054;-40
2022/11/09 01:24:48;;;;;;;8.25;3.00;;;13.00;99.90;;;;;;4994313;28;20042;-40
2022/11/09 01:27:15;;;;;;;8.05;2.60;;;13.00;99.90;;;;;;4995442;28;20197;-40
2022/11/09 01:29:42;;;;;;;11.07;3.40;;;13.00;99.90;;;;;;5004431;28;20089;-40
2022/11/09 01:32:09;;;;;;;7.22;3.28;;;12.90;99.90;;;;;;4994725;28;20054;-40
2022/11/09 01:34:35;;;;;;;10.18;4.50;;;12.90;99.90;;;;;;4996614;28;20077;-40
2022/11/09 01:37:03;;;;;;;8.38;3.35;;;12.90;99.90;;;;;;5015045;28;20134;-39
2022/11/09 01:39:30;;;;;;;12.40;3.47;;;12.90;99.90;;;;;;4993898;28;20125;-41
2022/11/09 01:41:57;;;;;;;13.18;3.13;;;12.90;99.90;;;;;;4997560;28;20090;-41
2022/11/09 01:44:26;;;;;;;9.93;2.65;;;12.80;99.90;;;;;;5003873;28;20045;-40
2022/11/09 01:46:54;;;;;;;7.32;2.38;;;12.80;99.90;;;;;;4997474;28;20112;-41
2022/11/09 01:49:39;;;;;;;9.18;2.63;;;12.80;99.90;;;;;;5014687;28;20092;-39
2022/11/09 01:52:09;;;;;;;13.52;3.00;;;12.80;99.90;;;;;;4997565;28;20177;-40
2022/11/09 01:54:38;;;;;;;8.45;2.35;;;12.80;99.90;;;;;;5014394;28;20133;-39
2022/11/09 01:57:07;;;;;;;8.75;2.53;;;12.80;99.90;;;;;;5014326;28;20431;-42
2022/11/09 01:59:36;;;;;;;8.48;2.42;;;12.80;99.90;;;;;;4997525;28;20081;-39
2022/11/09 02:02:02;;;;;;;10.07;2.80;;;12.70;99.90;;;;;;4998381;28;20050;-40
2022/11/09 02:04:30;;;;;;;7.55;2.45;;;12.70;99.90;;;;;;5014761;28;20081;-39
2022/11/09 02:06:57;;;;;;;11.00;2.55;;;12.70;99.90;;;;;;5010139;28;20105;-40
2022/11/09 02:09:27;;;;;;;9.43;2.65;;;12.70;99.90;;;;;;4989111;28;20104;-39
2022/11/09 02:11:54;;;;;;;11.27;2.72;;;12.70;99.90;;;;;;5014831;28;20081;-40
2022/11/09 02:14:21;;;;;;;12.52;2.58;;;12.70;99.90;;;;;;5014262;28;20089;-39
2022/11/09 02:16:48;;;;;;;6.97;2.45;;;12.70;99.90;;;;;;5012966;28;20609;-40
2022/11/09 02:19:15;;;;;;;10.75;2.80;;;12.70;99.90;;;;;;4997101;28;20077;-39
2022/11/09 02:21:43;;;;;;;11.65;2.67;;;12.70;99.90;;;;;;4997288;28;20046;-40
2022/11/09 02:24:10;;;;;;;9.98;2.50;;;12.60;99.90;;;;;;4996841;28;20049;-41
2022/11/09 02:26:40;;;;;;;14.30;2.88;;;12.70;99.90;;;;;;5011811;28;20463;-39
2022/11/09 02:29:07;;;;;;;13.50;2.50;;;12.70;99.90;;;;;;5014143;28;20086;-40
2022/11/09 02:31:36;;;;;;;8.55;2.20;;;12.60;99.90;;;;;;4996273;28;20119;-40
2022/11/09 02:34:05;;;;;;;11.15;2.88;;;12.60;99.90;;;;;;5014631;28;20129;-40
2022/11/09 02:36:31;;;;;;;10.85;2.65;;;12.60;99.90;;;;;;5012049;28;20136;-40
2022/11/09 02:38:59;;;;;;;9.80;2.70;;;12.60;99.90;;;;;;4996093;28;20073;-40
2022/11/09 02:41:26;;;;;;;13.82;2.83;;;12.50;99.90;;;;;;4995632;28;20089;-39
2022/11/09 02:43:53;;;;;;;14.73;2.78;;;12.60;99.90;;;;;;4997499;28;20528;-38
2022/11/09 02:46:24;;;;;;;10.20;2.20;;;12.50;99.90;;;;;;4993625;28;20085;-40
2022/11/09 02:48:51;;;;;;;12.80;2.77;;;12.50;99.90;;;;;;5014318;28;20104;-40
2022/11/09 02:51:18;;;;;;;10.32;2.60;;;12.50;99.90;;;;;;5013707;28;20461;-40
2022/11/09 02:53:44;;;;;;;11.70;2.30;;;12.50;99.90;;;;;;5013084;28;20061;-40
2022/11/09 02:56:12;;;;;;;10.65;2.30;;;12.50;99.90;;;;;;4996282;28;20137;-40
2022/11/09 02:58:39;;;;;;;13.77;3.25;;;12.40;99.90;;;;;;4981271;28;20082;-40
2022/11/09 03:01:06;;;;;;;10.07;2.47;;;12.50;99.90;;;;;;5006699;28;20251;-41
2022/11/09 03:03:33;;;;;;;12.63;2.92;;;12.40;99.90;;;;;;5013762;28;20513;-41
2022/11/09 03:06:00;;;;;;;13.52;2.80;;;12.50;99.90;;;;;;5008777;28;20133;-40
2022/11/09 03:08:26;;;;;;;11.40;2.42;;;12.30;99.90;;;;;;4994891;28;20169;-40
2022/11/09 03:10:53;;;;;;;10.20;2.60;;;12.40;99.90;;;;;;5013474;28;20085;-40
2022/11/09 03:13:21;;;;;;;15.23;2.05;;;12.40;99.90;;;;;;5012955;28;20130;-41
2022/11/09 03:15:48;;;;;;;16.17;2.63;;;12.30;99.90;;;;;;5000384;28;20367;-41
2022/11/09 03:18:15;;;;;;;13.93;2.20;;;12.30;99.90;;;;;;4996482;28;20054;-40
2022/11/09 03:20:42;;;;;;;11.25;2.30;;;12.40;99.90;;;;;;4995989;28;20073;-41
2022/11/09 03:23:09;;;;;;;11.63;2.58;;;12.30;99.90;;;;;;5011843;28;20081;-40
2022/11/09 03:25:36;;;;;;;16.42;3.20;;;12.30;99.90;;;;;;4994966;28;20131;-42
2022/11/09 03:28:04;;;;;;;14.57;2.80;;;12.30;99.90;;;;;;4995539;28;20461;-40
2022/11/09 03:30:32;;;;;;;12.60;2.35;;;12.30;99.90;;;;;;5010948;28;20112;-40
2022/11/09 03:32:59;;;;;;;13.63;2.35;;;12.20;99.90;;;;;;4995095;28;20155;-41
2022/11/09 03:35:26;;;;;;;11.23;2.55;;;12.30;99.90;;;;;;4994519;28;20096;-41
2022/11/09 03:37:53;;;;;;;14.35;2.97;;;12.20;99.90;;;;;;5013177;28;20050;-40
2022/11/09 03:40:19;;;;;;;11.35;2.40;;;12.20;99.90;;;;;;4995418;28;20498;-41
2022/11/09 03:42:46;;;;;;;16.67;2.90;;;12.20;99.90;;;;;;4982876;28;20054;-41
2022/11/09 03:45:13;;;;;;;8.80;2.13;;;12.20;99.90;;;;;;4995915;28;20108;-40
2022/11/09 03:47:42;;;;;;;7.93;2.50;;;12.10;99.90;;;;;;5013175;28;20100;-42
2022/11/09 03:50:09;;;;;;;12.98;2.92;;;12.10;99.90;;;;;;5012274;28;20117;-40
2022/11/09 03:52:36;;;;;;;15.30;2.78;;;12.10;99.90;;;;;;4992401;28;20462;-40
2022/11/09 03:55:03;;;;;;;10.02;2.42;;;12.10;99.90;;;;;;4989052;28;20092;-41
2022/11/09 03:57:30;;;;;;;13.07;2.25;;;12.10;99.90;;;;;;5012591;28;20471;-42
2022/11/09 03:59:57;;;;;;;12.25;3.08;;;12.10;99.90;;;;;;4994697;28;20145;-41
2022/11/09 04:02:24;;;;;;;13.35;2.28;;;12.10;99.90;;;;;;4995020;28;20081;-41
2022/11/09 04:04:52;;;;;;;13.18;2.42;;;12.10;99.90;;;;;;4996014;28;20136;-40
2022/11/09 04:07:19;;;;;;;11.88;2.50;;;12.10;99.90;;;;;;4992119;28;20054;-40
2022/11/09 04:09:45;;;;;;;11.82;2.58;;;12.10;99.90;;;;;;5010972;28;20129;-41
2022/11/09 04:12:12;;;;;;;13.50;2.30;;;12.10;99.90;;;;;;5012538;28;20457;-41
2022/11/09 04:14:39;;;;;;;16.15;2.55;;;12.10;99.90;;;;;;5012847;28;20057;-40
2022/11/09 04:17:06;;;;;;;14.32;2.58;;;12.20;99.90;;;;;;5012554;28;20132;-40
2022/11/09 04:19:32;;;;;;;10.35;2.45;;;12.10;99.90;;;;;;4990154;28;20053;-42
2022/11/09 04:22:00;;;;;;;9.95;2.22;;;12.10;99.90;;;;;;4995114;28;20082;-42
2022/11/09 04:24:27;;;;;;;15.82;2.80;;;12.10;99.90;;;;;;4994104;28;20046;-41
2022/11/09 04:26:54;;;;;;;11.57;2.45;;;12.10;99.90;;;;;;5011695;28;20506;-40
2022/11/09 04:29:21;;;;;;;7.32;2.20;;;12.20;99.90;;;;;;4994485;28;20148;-40
2022/11/09 04:31:48;;;;;;;14.00;2.35;;;12.20;99.90;;;;;;5012216;28;20108;-42
2022/11/09 04:34:15;;;;;;;18.52;2.80;;;12.10;99.90;;;;;;4994323;28;20137;-41
2022/11/09 04:36:42;;;;;;;11.40;2.25;;;12.10;99.90;;;;;;5011556;28;20046;-42
2022/11/09 04:39:10;;;;;;;9.98;2.30;;;12.10;99.90;;;;;;5011756;28;20085;-40
2022/11/09 04:41:37;;;;;;;7.38;2.20;;;12.20;99.90;;;;;;5010955;28;20096;-42
2022/11/09 04:44:03;;;;;;;8.73;2.17;;;12.10;99.90;;;;;;5011524;28;20050;-42
2022/11/09 04:46:30;;;;;;;9.32;2.55;;;12.10;99.90;;;;;;5010072;28;20743;-41
2022/11/09 04:48:57;;;;;;;10.07;1.98;;;12.10;99.90;;;;;;4985482;28;20142;-42
2022/11/09 04:51:24;;;;;;;12.40;2.53;;;12.10;99.90;;;;;;5008220;28;20112;-42
2022/11/09 04:53:51;;;;;;;12.10;2.53;;;12.10;99.90;;;;;;5010913;28;20053;-41
2022/11/09 04:56:19;;;;;;;9.63;2.40;;;12.10;99.90;;;;;;5012405;28;20124;-42
2022/11/09 04:58:45;;;;;;;14.35;2.80;;;12.10;99.90;;;;;;4995017;28;20103;-41
2022/11/09 05:01:13;;;;;;;9.82;2.67;;;12.10;99.90;;;;;;5010873;28;20045;-41
2022/11/09 05:03:40;;;;;;;10.63;2.58;;;12.10;99.90;;;;;;4985598;28;20389;-41
2022/11/09 05:08:48;;;;;;;13.10;2.55;;;12.20;99.90;;;;;;4999853;28;20050;-42
2022/11/09 05:11:14;;;;;;;7.95;2.30;;;12.20;99.90;;;;;;4994132;28;20140;-40
2022/11/09 05:13:43;;;;;;;11.20;2.53;;;12.20;99.90;;;;;;5010944;28;20053;-41
2022/11/09 05:16:09;;;;;;;11.40;2.38;;;12.20;99.90;;;;;;5006634;28;20072;-41
2022/11/09 05:18:36;;;;;;;11.20;2.58;;;12.30;99.90;;;;;;4995093;28;20058;-41
2022/11/09 05:21:03;;;;;;;9.52;2.78;;;12.20;99.90;;;;;;5009955;28;20504;-42
2022/11/09 05:26:17;;;;;;;10.40;2.70;;;12.20;99.90;;;;;;5006371;28;20799;-42
2022/11/09 05:28:45;;;;;;;7.32;2.55;;;12.20;99.90;;;;;;5011508;28;20573;-41
2022/11/09 05:31:12;;;;;;;10.63;2.22;;;12.20;99.90;;;;;;5010212;28;20042;-42
2022/11/09 05:33:39;;;;;;;9.60;2.25;;;12.20;99.90;;;;;;4994042;28;20129;-42
2022/11/09 05:36:06;;;;;;;11.88;2.30;;;12.20;99.90;;;;;;5008840;28;20070;-42
2022/11/09 05:38:33;;;;;;;9.88;2.45;;;12.20;99.90;;;;;;5009797;28;20062;-41
2022/11/09 05:41:00;;;;;;;9.52;2.25;;;12.20;99.90;;;;;;5011376;28;20084;-41
2022/11/09 05:43:26;;;;;;;14.25;2.42;;;12.20;99.90;;;;;;4994230;28;20073;-40
2022/11/09 05:45:54;;;;;;;11.18;3.63;;;12.20;99.90;;;;;;5011143;28;20542;-43
2022/11/09 05:48:21;;;;;;;12.95;3.05;;;12.10;99.90;;;;;;5010433;28;20108;-41
2022/11/09 05:50:48;;;;;;;12.23;2.47;;;12.10;99.90;;;;;;5010134;28;20108;-45
2022/11/09 05:53:15;;;;;;;12.13;2.30;;;12.10;99.90;;;;;;4989739;28;20132;-42
2022/11/09 05:55:42;;;;;;;9.43;2.85;;;12.10;99.90;;;;;;5012453;28;20092;-41
2022/11/09 05:58:10;;;;;;;13.60;2.33;;;12.10;99.90;;;;;;5009096;28;20116;-42
2022/11/09 06:00:36;;;;;;;6.25;2.08;;;12.10;99.90;;;;;;5012603;28;20498;-42
2022/11/09 06:03:05;;;;;;;15.18;2.95;;;12.10;99.90;;;;;;4998692;28;20573;-42
2022/11/09 06:05:32;;;;;;;16.02;2.50;;;12.10;99.90;;;;;;5010116;28;20038;-44
2022/11/09 06:08:02;;;;;;;10.00;2.58;;;12.00;99.90;;;;;;5012231;28;20399;-42
2022/11/09 06:10:29;;;;;;;8.60;2.05;;;12.10;99.90;;;;;;5013120;28;20088;-41
2022/11/09 06:12:56;;;;;;;12.23;2.50;;;12.00;99.90;;;;;;4997627;28;20129;-42
2022/11/09 06:15:23;;;;;;;9.65;2.22;;;12.00;99.90;;;;;;5015458;28;20085;-41
2022/11/09 06:17:51;;;;;;;13.27;2.60;;;12.10;99.90;;;;;;5014604;28;20108;-42
2022/11/09 06:20:19;;;;;;;11.00;2.55;;;11.90;99.90;;;;;;4998132;28;20486;-43
2022/11/09 06:22:53;;;;;;;10.90;3.33;;;12.00;99.90;;;;;;4998238;28;20095;-41
2022/11/09 06:25:19;;;;;;;8.07;2.60;;;11.90;99.90;;;;;;5014108;28;20407;-42
2022/11/09 06:27:46;;;;;;;11.90;2.47;;;11.90;99.90;;;;;;5015224;28;20046;-42
2022/11/09 06:30:13;;;;;;;10.52;2.35;;;11.90;99.90;;;;;;5014130;28;20089;-41
2022/11/09 06:32:40;;;;;;;11.88;3.00;;;11.80;99.90;;;;;;5013959;28;20108;-42
2022/11/09 06:35:08;;;;;;;16.08;2.60;;;11.90;99.90;;;;;;4997532;28;20081;-42
2022/11/09 06:37:36;;;;;;;11.85;2.50;;;11.80;99.90;;;;;;4997730;28;20062;-41
2022/11/09 06:40:03;;;;;;;14.90;2.60;;;11.80;99.90;;;;;;5014880;28;20045;-42
2022/11/09 06:42:29;;;;;;;14.30;2.58;;;11.80;99.90;;;;;;4996451;28;20081;-42
2022/11/09 06:44:56;;;;;;;14.05;2.35;;;11.80;99.90;;;;;;4996918;28;20081;-42
2022/11/09 06:47:23;;;;;;;9.68;2.25;;;11.80;99.90;;;;;;5013454;28;20140;-42
2022/11/09 06:49:50;;;;;;;15.30;2.83;;;11.80;99.90;;;;;;5014733;28;20081;-43
2022/11/09 06:52:16;;;;;;;13.43;2.17;;;11.80;99.90;;;;;;5013646;28;20085;-40
2022/11/09 06:54:44;;;;;;;14.05;3.00;;;11.80;99.90;;;;;;5014791;28;20447;-40
2022/11/09 06:57:11;;;;;;;12.50;3.03;;;11.80;99.90;;;;;;5013589;28;20053;-42
2022/11/09 06:59:38;;;;;;;14.13;3.35;;;11.80;99.90;;;;;;5014045;28;20391;-41
2022/11/09 07:02:05;;;;;;;16.33;3.08;;;11.80;99.90;;;;;;4984125;28;20062;-39
2022/11/09 07:04:32;;;;;;;16.08;2.17;;;11.80;99.90;;;;;;5003692;28;20124;-44
2022/11/09 07:06:59;;;;;;;11.50;2.08;;;11.80;99.90;;;;;;5013667;28;20137;-42
2022/11/09 07:09:26;;;;;;;9.82;2.40;;;11.80;99.90;;;;;;4997126;28;20054;-40
2022/11/09 07:11:54;;;;;;;12.90;2.75;;;11.80;99.90;;;;;;4996760;28;20509;-42
2022/11/09 07:14:22;;;;;;;15.48;2.70;;;11.80;99.90;;;;;;4996779;28;20509;-42
2022/11/09 07:16:49;;;;;;;13.85;2.55;;;11.70;99.90;;;;;;5014493;28;20072;-40
2022/11/09 07:19:15;;;;;;;9.35;2.22;;;11.70;99.90;;;;;;5014070;28;20561;-41
2022/11/09 07:21:42;;;;;;;8.93;2.40;;;11.70;99.90;;;;;;5014060;28;20105;-41
2022/11/09 07:24:09;;;;;;;19.95;2.83;;;11.70;99.90;;;;;;4996864;28;20478;-41
2022/11/09 07:26:36;;;;;;;14.13;2.67;;;11.70;99.90;;;;;;4996278;28;20080;-40
2022/11/09 07:29:04;;;;;;;12.00;2.65;;;11.70;99.90;;;;;;5013335;28;20143;-40
2022/11/09 07:31:31;;;;;;;13.45;2.92;;;11.70;99.90;;;;;;4994984;28;20049;-41
2022/11/09 07:34:01;;;;;;;11.13;2.10;;;11.70;99.90;;;;;;5014056;28;20085;-42
2022/11/09 07:36:27;;;;;;;13.43;2.25;;;11.70;99.90;;;;;;4996536;28;20108;-40
2022/11/09 07:38:54;;;;;;;20.00;2.95;;;11.70;99.90;;;;;;5013813;28;20498;-42
2022/11/09 07:41:21;;;;;;;14.68;2.80;;;11.70;99.90;;;;;;5013840;28;20085;-40
2022/11/09 07:43:48;;;;;;;15.85;2.45;;;11.70;99.90;;;;;;5013739;28;20081;-40
2022/11/09 07:46:16;;;;;;;15.15;2.50;;;11.70;99.90;;;;;;5013339;28;20081;-40
2022/11/09 07:48:43;;;;;;;13.70;2.67;;;11.70;99.90;;;;;;5013895;28;20116;-41
2022/11/09 07:51:10;;;;;;;12.00;3.47;;;11.80;99.90;;;;;;5013646;28;20086;-38
2022/11/09 07:53:37;;;;;;;16.45;2.75;;;11.80;99.90;;;;;;4996112;28;20113;-40
2022/11/09 07:56:04;;;;;;;11.77;3.00;;;11.80;99.90;;;;;;4996283;28;20078;-39
2022/11/09 07:58:30;;;;;;;14.57;3.47;;;11.80;99.90;;;;;;5013367;28;20096;-40
2022/11/09 08:00:57;;;;;;;19.40;3.10;;;11.80;99.90;;;;;;5012702;28;20152;-40
2022/11/09 08:03:25;;;;;;;16.45;2.83;;;11.80;99.90;;;;;;4994723;28;20089;-40
2022/11/09 08:05:52;;;;;;;15.30;2.72;;;11.80;99.90;;;;;;4996072;28;20090;-42
2022/11/09 08:08:19;;;;;;;18.02;3.28;;;11.80;99.90;;;;;;5013416;28;20089;-43
2022/11/09 08:10:51;;;;;;;13.85;2.90;;;11.90;99.90;;;;;;5012796;28;20449;-43
2022/11/09 08:13:18;;;;;;;16.40;3.13;;;11.90;99.90;;;;;;4995744;28;20060;-40
2022/11/09 08:15:46;;;;;;;20.08;2.95;;;11.90;99.90;;;;;;4996175;28;20548;-40
2022/11/09 08:18:14;;;;;;;14.57;3.03;;;12.00;99.90;;;;;;4994654;28;20443;-41
2022/11/09 08:20:42;;;;;;;13.77;2.85;;;12.00;99.90;;;;;;5013359;28;20089;-41
2022/11/09 08:23:11;;;;;;;15.65;3.00;;;12.00;99.90;;;;;;5013235;28;20096;-39
2022/11/09 08:25:37;;;;;;;15.80;3.20;;;12.10;99.90;;;;;;4995251;28;20073;-42
2022/11/09 08:28:04;;;;;;;20.60;3.63;;;12.10;99.90;;;;;;4995734;28;20089;-40
2022/11/09 08:30:31;;;;;;;15.43;3.10;;;12.10;99.90;;;;;;5012102;28;20082;-41
2022/11/09 08:32:58;;;;;;;14.68;2.45;;;12.20;99.90;;;;;;4981478;28;20129;-42
2022/11/09 08:35:25;;;;;;;18.48;3.70;;;12.20;99.90;;;;;;4992774;28;20085;-40
2022/11/09 08:37:53;;;;;;;15.55;3.28;;;12.40;99.90;;;;;;5013063;28;20054;-41
2022/11/09 08:40:21;;;;;;;17.52;3.00;;;12.40;99.90;;;;;;5012836;28;20478;-41
2022/11/09 08:42:48;;;;;;;18.13;3.42;;;12.50;99.90;;;;;;5012824;28;20125;-41
2022/11/09 08:45:15;;;;;;;14.57;2.60;;;12.50;99.90;;;;;;4995616;28;20089;-42
2022/11/09 08:47:42;;;;;;;17.58;3.08;;;12.60;99.90;;;;;;4995139;28;20045;-41
2022/11/09 08:50:09;;;;;;;17.17;3.20;;;12.70;99.90;;;;;;5013254;28;20092;-40
2022/11/09 08:52:36;;;;;;;19.88;3.47;;;12.70;99.90;;;;;;5012728;28;20141;-41
2022/11/09 08:55:05;;;;;;;14.23;3.15;;;12.80;99.90;;;;;;4995399;28;20089;-40
2022/11/09 08:57:32;;;;;;;17.80;3.08;;;12.90;99.90;;;;;;5010871;28;20441;-40
2022/11/09 08:59:59;;;;;;;22.67;2.78;;;12.90;99.90;;;;;;5012426;28;20445;-40
2022/11/09 09:02:26;;;;;;;19.48;3.15;;;13.00;99.90;;;;;;4994371;28;20125;-39
2022/11/09 09:04:52;;;;;;;13.20;2.63;;;13.00;99.90;;;;;;5011372;28;20576;-40
2022/11/09 09:07:19;;;;;;;16.35;2.95;;;13.00;99.90;;;;;;5012794;28;20054;-41
2022/11/09 09:09:46;;;;;;;23.33;3.53;;;13.10;99.90;;;;;;4995381;28;20077;-40
2022/11/09 09:12:14;;;;;;;17.00;3.00;;;13.10;99.90;;;;;;5012986;28;20050;-41
2022/11/09 09:14:41;;;;;;;12.90;2.65;;;13.20;99.90;;;;;;5012864;28;20097;-41
2022/11/09 09:17:07;;;;;;;14.43;3.55;;;13.20;99.90;;;;;;5012843;28;20101;-41
2022/11/09 09:19:34;;;;;;;16.55;3.03;;;13.30;99.90;;;;;;5012813;28;20081;-40
2022/11/09 09:22:01;;;;;;;18.88;3.40;;;13.30;99.90;;;;;;4991838;28;20126;-40
2022/11/09 09:24:28;;;;;;;14.13;3.33;;;13.30;99.90;;;;;;4993047;28;20138;-42
2022/11/09 09:26:55;;;;;;;14.85;3.53;;;13.40;99.90;;;;;;5007988;28;20085;-41
2022/11/09 09:29:23;;;;;;;16.15;3.25;;;13.40;99.90;;;;;;4994211;28;20077;-41
2022/11/09 09:31:49;;;;;;;16.13;3.50;;;13.40;99.90;;;;;;4996698;28;20486;-40
2022/11/09 09:34:16;;;;;;;17.08;3.58;;;13.40;99.90;;;;;;4995709;28;20090;-41
2022/11/09 09:36:43;;;;;;;15.23;3.85;;;13.50;99.90;;;;;;4996657;28;20090;-41
2022/11/09 09:39:10;;;;;;;16.73;3.13;;;13.50;99.90;;;;;;4995583;28;20082;-41
2022/11/09 09:41:38;;;;;;;12.63;3.03;;;13.50;99.90;;;;;;4995552;28;20054;-43
2022/11/09 09:44:16;;;;;;;15.38;3.47;;;13.60;99.90;;;;;;4995599;28;20108;-42
2022/11/09 09:46:45;;;;;;;16.10;3.90;;;13.60;99.90;;;;;;4996536;28;20054;-41
2022/11/09 09:49:14;;;;;;;16.92;3.10;;;13.60;99.90;;;;;;4994648;28;20138;-41
2022/11/09 09:51:42;;;;;;;13.80;2.65;;;13.70;99.90;;;;;;4994164;28;20495;-41
2022/11/09 09:54:13;;;;;;;18.50;4.20;;;13.70;99.90;;;;;;4996655;28;20085;-41
2022/11/09 09:56:40;;;;;;;18.40;3.92;;;13.70;99.90;;;;;;4995149;28;20061;-41
2022/11/09 09:59:11;;;;;;;18.25;3.85;;;13.70;99.90;;;;;;4994766;28;20077;-43
2022/11/09 10:01:39;;;;;;;15.75;3.70;;;13.70;99.90;;;;;;4995152;28;20093;-41
2022/11/09 10:04:14;;;;;;;14.82;3.72;;;13.70;99.90;;;;;;4996038;28;20438;-43
2022/11/09 10:06:43;;;;;;;18.50;3.33;;;13.70;99.90;;;;;;4996070;28;20475;-41
2022/11/09 10:09:20;;;;;;;20.77;3.35;;;13.70;99.90;;;;;;4994384;28;20140;-40
2022/11/09 10:11:50;;;;;;;16.15;3.45;;;13.80;99.90;;;;;;4983007;28;20125;-40
2022/11/09 10:14:43;;;;;;;11.75;2.75;;;13.80;99.90;;;;;;4976577;28;20137;-40
2022/11/09 10:17:14;;;;;;;14.02;3.65;;;13.80;99.90;;;;;;4976400;28;20043;-40
2022/11/09 10:19:50;;;;;;;18.07;3.20;;;13.80;99.90;;;;;;4975295;28;20134;-43
2022/11/09 10:22:19;;;;;;;21.73;3.42;;;13.80;99.90;;;;;;4986932;28;20337;-43
2022/11/09 10:24:50;;;;;;;17.88;3.67;;;13.70;99.90;;;;;;4995649;28;20092;-40
2022/11/09 10:27:31;;;;;;;20.40;4.68;;;13.70;99.90;;;;;;4995752;28;20144;-40
2022/11/09 10:29:58;;;;;;;14.53;3.43;;;13.70;99.90;;;;;;5007505;28;20093;-41
2022/11/09 10:32:27;;;;;;;16.85;3.20;;;13.70;99.90;;;;;;4996890;28;20824;-40
2022/11/09 10:34:57;;;;;;;17.20;3.63;;;13.80;99.90;;;;;;5015236;28;20445;-40
2022/11/09 10:37:26;;;;;;;15.25;3.03;;;13.80;99.90;;;;;;5015088;28;20104;-39
2022/11/09 10:39:56;;;;;;;15.35;3.78;;;13.90;99.90;;;;;;5014086;28;20045;-41
2022/11/09 10:42:23;;;;;;;19.95;4.03;;;13.90;99.90;;;;;;5014664;28;20081;-40
2022/11/09 10:44:50;;;;;;;16.50;4.05;;;13.90;99.90;;;;;;4997245;28;20108;-40
2022/11/09 10:47:17;;;;;;;13.35;3.47;;;13.90;99.90;;;;;;5013186;28;20143;-41
2022/11/09 10:49:44;;;;;;;19.13;3.30;;;13.90;99.90;;;;;;4997691;28;20085;-40
2022/11/09 10:52:31;;;;;;;17.27;3.20;;;13.90;99.90;;;;;;4997599;28;20045;-40
2022/11/09 10:55:17;;;;;;;18.27;3.88;;;13.90;99.90;;;;;;4997422;28;20074;-40
2022/11/09 10:57:51;;;;;;;14.35;3.70;;;14.00;99.90;;;;;;4996724;28;20510;-40
2022/11/09 11:00:19;;;;;;;18.45;4.05;;;14.00;99.90;;;;;;5014536;28;20140;-40
2022/11/09 11:02:46;;;;;;;18.25;3.38;;;14.10;99.90;;;;;;4997240;28;20078;-39
2022/11/09 11:05:28;;;;;;;15.52;3.50;;;14.10;99.90;;;;;;4995022;28;20054;-40
2022/11/09 11:07:56;;;;;;;15.25;3.67;;;14.10;99.90;;;;;;4995329;28;20050;-41
2022/11/09 11:10:23;;;;;;;17.45;3.30;;;14.10;99.90;;;;;;4995052;28;20525;-41
2022/11/09 11:13:17;;;;;;;19.65;3.33;;;14.10;99.90;;;;;;4994985;28;20142;-40
2022/11/09 11:15:44;;;;;;;16.88;3.42;;;14.20;99.90;;;;;;4994665;28;20065;-41
2022/11/09 11:18:25;;;;;;;14.10;3.28;;;14.20;99.90;;;;;;5013338;28;20138;-40
2022/11/09 11:21:12;;;;;;;17.02;3.83;;;14.40;99.90;;;;;;5012106;28;20480;-40
2022/11/09 11:23:40;;;;;;;17.65;3.55;;;14.40;99.90;;;;;;5011428;28;20081;-42
2022/11/09 11:26:27;;;;;;;13.50;2.97;;;14.50;99.90;;;;;;4999965;28;20132;-41
2022/11/09 11:28:57;;;;;;;18.70;3.40;;;14.60;99.90;;;;;;5012793;28;20089;-43
2022/11/09 11:31:24;;;;;;;12.15;3.08;;;14.60;99.90;;;;;;4994789;28;20104;-42
2022/11/09 11:33:51;;;;;;;12.75;3.05;;;14.60;99.90;;;;;;4994310;28;20054;-41
2022/11/09 11:36:22;;;;;;;12.00;3.30;;;14.50;99.90;;;;;;5011100;28;20096;-40
2022/11/09 11:38:53;;;;;;;14.30;3.05;;;14.50;99.90;;;;;;5012100;28;20494;-42
2022/11/09 11:41:33;;;;;;;18.63;3.30;;;14.50;99.90;;;;;;5005309;28;20133;-43
2022/11/09 11:44:01;;;;;;;17.02;3.90;;;14.40;99.90;;;;;;5013622;28;20138;-42
2022/11/09 11:46:33;;;;;;;14.95;3.00;;;14.40;99.90;;;;;;5013975;28;20081;-41
2022/11/09 11:49:07;;;;;;;;;;;14.30;99.90;;;;;;5012527;28;20054;-40
2022/11/09 11:51:39;;;;;;;17.40;2.90;;;14.30;99.90;;;;;;5002262;28;19933;-41
2022/11/09 11:54:12;;;;;;;16.25;2.88;;;14.20;99.90;;;;;;4995740;28;20050;-40
2022/11/09 11:56:42;;;;;;;11.60;2.72;;;14.20;99.90;;;;;;5012729;28;20054;-40
2022/11/09 11:59:37;;;;;;;18.25;3.00;;;14.20;99.90;;;;;;4995990;28;20064;-41
2022/11/09 12:02:28;;;;;;;11.77;2.28;;;14.30;99.90;;;;;;5011026;28;20446;-41
2022/11/09 12:05:20;;;;;;;13.35;3.00;;;14.40;99.90;;;;;;5012172;28;20501;-41
2022/11/09 12:07:49;;;;;;;14.05;2.85;;;14.40;99.90;;;;;;4992765;28;20046;-40
2022/11/09 12:10:24;;;;;;;14.75;2.92;;;14.40;99.90;;;;;;5012622;28;20092;-40
2022/11/09 12:12:56;;;;;;;16.20;3.15;;;14.40;99.90;;;;;;5013142;28;20050;-42
2022/11/09 12:15:31;;;;;;;15.50;2.85;;;14.40;99.90;;;;;;5004176;28;20085;-41
2022/11/09 12:18:08;;;;;;;21.10;3.25;;;14.40;99.90;;;;;;4994286;28;20093;-41
2022/11/09 12:20:38;;;;;;;16.58;2.92;;;14.40;99.90;;;;;;4988717;28;20060;-41
2022/11/09 12:23:17;;;;;;;14.18;2.95;;;14.30;99.90;;;;;;4994826;28;20081;-41
2022/11/09 12:25:48;;;;;;;11.05;2.17;;;14.40;99.90;;;;;;5010570;28;20070;-42
2022/11/09 12:28:22;;;;;;;14.87;2.80;;;14.30;99.90;;;;;;4994171;28;20139;-40
2022/11/09 12:30:57;;;;;;;10.52;2.47;;;14.30;99.90;;;;;;4992766;28;20058;-42
2022/11/09 12:33:28;;;;;;;15.45;2.88;;;14.30;99.90;;;;;;4993269;28;20133;-44
2022/11/09 12:35:56;;;;;;;13.93;2.83;;;14.40;99.90;;;;;;5009885;28;20104;-39
2022/11/09 12:38:25;;;;;;;12.82;2.65;;;14.40;99.90;;;;;;5012872;28;20053;-41
2022/11/09 12:40:54;;;;;;;19.60;3.13;;;14.40;99.90;;;;;;5010525;28;20499;-41
2022/11/09 12:43:25;;;;;;;13.75;2.50;;;14.40;99.90;;;;;;4994408;28;20085;-40
2022/11/09 12:45:52;;;;;;;13.75;2.63;;;14.40;99.90;;;;;;4994563;28;20123;-41
2022/11/09 12:48:22;;;;;;;12.32;2.40;;;14.40;99.90;;;;;;5007739;28;20521;-40
2022/11/09 12:50:49;;;;;;;9.27;2.42;;;14.30;99.90;;;;;;5010165;28;20496;-41